South Lorain, Ohio
Current Conditions -  °F | °C
As of 3:53 PM on Saturday 22 Nov 2014 (Local Time) from KLPR Reporting Station
Overcast Overcast  
Wind Chill: 41°   Ceiling: 4400
Heat Index: 48°   Visibility: 10mi
Dew Point: 40°   Wind: 18mph
Humidity: 74%   Direction: 240°WSW
Pressure: 30.04"   Gusts: 30mph
Location:  41.4372°N, 82.1333°W
Report Text: KLPR 222053Z AUTO 24016G26KT 10SM OVC044 09/04 A3004 RMK AO2 PK WND 23026/2051 SLP178 60000 T00890044 56019 TSNO
Loading
Personal Weather Stations






























Interactive Weather Map New forecast layout! Learn more

10-Day Weather Forecast

Advertisements
Track Severe Weather on mobile